createdAt,value
2022-08-11T00:03:06.359Z,17.1
2022-08-11T00:09:03.115Z,17.3
2022-08-11T00:14:54.265Z,17.4
2022-08-11T00:21:32.429Z,17.4
2022-08-11T00:28:04.529Z,17.3
2022-08-11T00:34:00.748Z,17.1
2022-08-11T00:40:35.697Z,16.9
2022-08-11T00:46:18.744Z,16.8
2022-08-11T00:52:20.223Z,16.8
2022-08-11T00:58:26.431Z,16.5
2022-08-11T01:04:30.375Z,16.2
2022-08-11T01:10:40.398Z,16.1
2022-08-11T01:16:47.533Z,15.9
2022-08-11T01:23:35.618Z,15.8
2022-08-11T01:29:39.522Z,15.7
2022-08-11T01:35:15.685Z,15.6
2022-08-11T01:40:55.247Z,15.5
2022-08-11T01:52:51.610Z,15.4
2022-08-11T01:58:12.596Z,15.4
2022-08-11T02:04:13.153Z,15.3
2022-08-11T02:10:07.919Z,15.3
2022-08-11T02:15:56.652Z,15.2
2022-08-11T02:21:36.651Z,15.1
2022-08-11T02:28:08.967Z,15
2022-08-11T02:35:16.501Z,14.6
2022-08-11T02:40:57.115Z,14.5
2022-08-11T02:46:51.645Z,14.4
2022-08-11T02:52:40.465Z,14.4
2022-08-11T02:58:48.595Z,14.3
2022-08-11T03:04:18.575Z,14.3
2022-08-11T03:10:21.188Z,14.3
2022-08-11T03:15:48.208Z,14.3
2022-08-11T03:21:12.376Z,14.3
2022-08-11T03:27:38.485Z,14.4
2022-08-11T03:33:07.810Z,14.4
2022-08-11T03:39:20.683Z,14.4
2022-08-11T03:45:59.244Z,14.4
2022-08-11T03:51:45.073Z,14.4
2022-08-11T03:57:29.662Z,14.5
2022-08-11T04:03:12.416Z,14.6
2022-08-11T04:08:53.756Z,14.8
2022-08-11T04:15:03.811Z,14.9
2022-08-11T04:20:49.538Z,15.1
2022-08-11T04:28:18.915Z,15.3
2022-08-11T04:35:20.434Z,15.6
2022-08-11T04:41:01.371Z,15.7
2022-08-11T04:46:57.162Z,15.9
2022-08-11T04:53:44.749Z,15.9
2022-08-11T04:59:24.224Z,16.1
2022-08-11T05:05:08.560Z,16.4
2022-08-11T05:10:44.969Z,16.4
2022-08-11T05:16:15.403Z,16.6
2022-08-11T05:22:01.737Z,16.9
2022-08-11T05:29:20.466Z,17.1
2022-08-11T05:35:03.064Z,17.4
2022-08-11T05:42:06.758Z,18.4
2022-08-11T05:49:13.225Z,18.4
2022-08-11T06:02:09.971Z,19.4
2022-08-11T06:08:06.006Z,19.4
2022-08-11T06:14:01.591Z,19.6
2022-08-11T06:19:41.080Z,20.6
2022-08-11T06:25:28.789Z,20.6
2022-08-11T06:31:40.575Z,21.3
2022-08-11T06:37:22.836Z,21.4
2022-08-11T06:43:03.889Z,22
2022-08-11T06:48:47.729Z,22.4
2022-08-11T06:55:55.346Z,22.8
2022-08-11T07:01:49.775Z,23.1
2022-08-11T07:07:41.002Z,23.9
2022-08-11T07:15:16.832Z,23.9
2022-08-11T07:22:20.878Z,24.9
2022-08-11T07:28:29.568Z,24
2022-08-11T07:34:40.638Z,24.2
2022-08-11T07:40:25.865Z,24.3
2022-08-11T07:46:05.187Z,25.3
2022-08-11T07:51:46.444Z,25.3
2022-08-11T08:00:16.882Z,24.9
2022-08-11T08:06:28.580Z,27.3
2022-08-11T08:12:03.879Z,26.1
2022-08-11T08:17:43.779Z,25.8
2022-08-11T08:24:29.561Z,25.8
2022-08-11T08:30:22.116Z,26.3
2022-08-11T08:36:12.502Z,25.1
2022-08-11T08:42:23.496Z,25.5
2022-08-11T08:49:11.440Z,25.1
2022-08-11T08:55:54.532Z,26.6
2022-08-11T09:01:54.366Z,26.1
2022-08-11T09:07:56.788Z,27.7
2022-08-11T09:13:45.428Z,28.3
2022-08-11T09:19:24.866Z,27.6
2022-08-11T09:26:31.382Z,27.4
2022-08-11T09:32:13.317Z,27
2022-08-11T09:38:27.315Z,27.9
2022-08-11T09:44:24.704Z,27
2022-08-11T09:50:15.723Z,27.6
2022-08-11T09:56:55.809Z,28.8
2022-08-11T10:03:05.478Z,29.1
2022-08-11T10:08:57.096Z,28.4
2022-08-11T10:16:31.162Z,27.7
2022-08-11T10:22:27.654Z,29.1
2022-08-11T10:29:53.300Z,30.1
2022-08-11T10:36:49.581Z,28.1
2022-08-11T10:44:34.875Z,30.1
2022-08-11T10:50:21.999Z,29.8
2022-08-11T10:56:24.288Z,29.3
2022-08-11T11:02:27.013Z,28.8
2022-08-11T11:09:25.340Z,30.1
2022-08-11T11:15:16.085Z,29.4
2022-08-11T11:21:27.483Z,29.1
2022-08-11T11:27:17.654Z,29.5
2022-08-11T11:33:05.937Z,28.8
2022-08-11T11:39:45.812Z,28.6
2022-08-11T11:45:40.571Z,29.7
2022-08-11T11:51:31.317Z,31
2022-08-11T11:57:11.883Z,30.8
2022-08-11T12:03:19.334Z,31.2
2022-08-11T12:09:19.131Z,30.9
2022-08-11T12:15:01.092Z,30.2
2022-08-11T12:22:24.472Z,32.3
2022-08-11T12:30:16.997Z,28.3
2022-08-11T12:36:17.135Z,27.9
2022-08-11T12:44:14.100Z,26.4
2022-08-11T12:51:13.960Z,25.9
2022-08-11T12:57:56.979Z,25.8
2022-08-11T13:03:42.197Z,25.3
2022-08-11T13:09:36.459Z,26.3
2022-08-11T13:16:33.449Z,26.9
2022-08-11T13:22:11.270Z,27
2022-08-11T13:28:32.995Z,27.3
2022-08-11T13:34:13.722Z,27.9
2022-08-11T13:41:29.061Z,27.1
2022-08-11T13:47:10.552Z,28.3
2022-08-11T13:52:51.378Z,28
2022-08-11T14:00:28.334Z,28.5
2022-08-11T14:15:27.787Z,27.7
2022-08-11T14:22:11.477Z,28.5
2022-08-11T14:29:42.371Z,28.3
2022-08-11T14:36:22.417Z,28.2
2022-08-11T14:42:29.024Z,28.1
2022-08-11T14:49:09.751Z,27.6
2022-08-11T14:55:27.219Z,28.4
2022-08-11T15:01:40.460Z,28.3
2022-08-11T15:08:24.259Z,27.9
2022-08-11T15:14:55.810Z,27.4
2022-08-11T15:20:53.746Z,26.5
2022-08-11T15:26:31.844Z,26
2022-08-11T15:32:39.996Z,25.8
2022-08-11T15:38:35.254Z,25.5
2022-08-11T15:45:23.945Z,25.4
2022-08-11T15:51:42.167Z,25.2
2022-08-11T15:57:26.661Z,25.1
2022-08-11T16:04:40.867Z,25
2022-08-11T16:11:43.109Z,24.8
2022-08-11T16:17:25.125Z,24.9
2022-08-11T16:23:33.459Z,25.1
2022-08-11T16:31:58.028Z,26.1
2022-08-11T16:38:27.045Z,25.8
2022-08-11T16:45:10.894Z,24.8
2022-08-11T16:51:45.899Z,24.8
2022-08-11T16:59:04.468Z,24.6
2022-08-11T17:04:47.917Z,24.4
2022-08-11T17:11:42.282Z,24.2
2022-08-11T17:17:11.395Z,24
2022-08-11T17:24:25.319Z,23.9
2022-08-11T17:30:31.955Z,23.7
2022-08-11T17:36:45.645Z,23.6
2022-08-11T17:42:31.210Z,23.4
2022-08-11T17:48:16.529Z,23.2
2022-08-11T17:54:40.413Z,23.1
2022-08-11T18:00:56.554Z,22.9
2022-08-11T18:07:08.218Z,22.9
2022-08-11T18:13:38.902Z,22.9
2022-08-11T18:19:11.370Z,22.8
2022-08-11T18:25:31.393Z,22.8
2022-08-11T18:31:20.640Z,22.8
2022-08-11T18:38:13.516Z,22.7
2022-08-11T18:44:17.852Z,22.6
2022-08-11T18:51:47.791Z,22.6
2022-08-11T18:57:32.226Z,22.4
2022-08-11T19:03:21.830Z,22.3
2022-08-11T19:10:27.879Z,22.3
2022-08-11T19:16:22.842Z,22.2
2022-08-11T19:22:22.732Z,22.1
2022-08-11T19:27:33.460Z,22.2
2022-08-11T19:34:35.702Z,22.1
2022-08-11T19:40:20.967Z,21.9
2022-08-11T19:46:59.326Z,21.8
2022-08-11T19:53:17.510Z,21.5
2022-08-11T19:58:46.844Z,21.4
2022-08-11T20:04:55.022Z,21.3
2022-08-11T20:11:34.418Z,21.2
2022-08-11T20:23:27.988Z,21.2
2022-08-11T20:29:44.363Z,21.3
2022-08-11T20:35:16.841Z,21.1
2022-08-11T20:41:16.145Z,21
2022-08-11T20:48:34.063Z,21.1
2022-08-11T20:55:19.119Z,21.1
2022-08-11T21:14:19.640Z,20.8
2022-08-11T21:22:20.091Z,20.5
2022-08-11T21:28:28.908Z,20.4
2022-08-11T21:34:07.777Z,20.5
2022-08-11T21:39:58.174Z,20.5
2022-08-11T21:45:48.031Z,20.5
2022-08-11T21:51:47.613Z,20.4
2022-08-11T21:57:26.028Z,20.4
2022-08-11T22:03:14.025Z,20.4
2022-08-11T22:08:48.020Z,20.3
2022-08-11T22:16:10.435Z,20.1
2022-08-11T22:22:33.797Z,19.8
2022-08-11T22:29:08.591Z,19.8
2022-08-11T22:35:45.211Z,19.8
2022-08-11T22:41:17.531Z,19.8
2022-08-11T22:46:49.335Z,19.8
2022-08-11T22:52:49.920Z,19.8
2022-08-11T22:58:51.709Z,19.8
2022-08-11T23:04:53.093Z,19.7
2022-08-11T23:16:32.622Z,19.6
2022-08-11T23:23:40.227Z,19.5
2022-08-11T23:29:22.299Z,19.4
2022-08-11T23:37:03.115Z,19.4
2022-08-11T23:42:41.317Z,19.3
2022-08-11T23:48:40.786Z,19.3
2022-08-11T23:54:36.583Z,19.3
